createdAt,value
2022-12-04T00:01:24.955Z,14.55
2022-12-04T00:03:57.146Z,14.77
2022-12-04T00:08:55.256Z,14.05
2022-12-04T00:11:26.464Z,15.10
2022-12-04T00:13:54.631Z,15.80
2022-12-04T00:16:25.351Z,14.98
2022-12-04T00:18:54.543Z,15.18
2022-12-04T00:21:24.565Z,15.48
2022-12-04T00:23:53.245Z,15.05
2022-12-04T00:26:24.802Z,14.50
2022-12-04T00:28:53.480Z,15.60
2022-12-04T00:31:23.922Z,14.52
2022-12-04T00:33:52.485Z,15.48
2022-12-04T00:36:23.282Z,15.27
2022-12-04T00:38:51.243Z,14.73
2022-12-04T00:41:21.040Z,24.75
2022-12-04T00:43:51.009Z,21.92
2022-12-04T00:46:19.137Z,21.90
2022-12-04T00:48:48.104Z,21.88
2022-12-04T00:51:18.270Z,22.33
2022-12-04T00:53:46.992Z,21.13
2022-12-04T00:56:18.537Z,20.65
2022-12-04T00:58:47.171Z,20.85
2022-12-04T01:01:17.939Z,21.30
2022-12-04T01:03:46.522Z,21.27
2022-12-04T01:06:23.135Z,21.13
2022-12-04T01:08:51.373Z,20.40
2022-12-04T01:11:20.051Z,20.42
2022-12-04T01:13:51.359Z,19.75
2022-12-04T01:16:23.518Z,19.27
2022-12-04T01:21:20.174Z,20.27
2022-12-04T01:23:48.240Z,18.88
2022-12-04T01:26:16.494Z,19.52
2022-12-04T01:28:44.459Z,18.73
2022-12-04T01:31:16.920Z,18.65
2022-12-04T01:33:47.177Z,19.27
2022-12-04T01:36:17.413Z,19.80
2022-12-04T01:38:46.154Z,19.20
2022-12-04T01:41:15.903Z,20.10
2022-12-04T01:43:44.211Z,19.27
2022-12-04T01:46:12.690Z,18.55
2022-12-04T01:48:47.842Z,18.63
2022-12-04T01:51:20.385Z,18.50
2022-12-04T01:53:53.124Z,18.80
2022-12-04T01:56:27.505Z,19.23
2022-12-04T01:58:58.748Z,18.35
2022-12-04T02:01:30.351Z,17.98
2022-12-04T02:04:03.411Z,17.55
2022-12-04T02:06:31.381Z,18.20
2022-12-04T02:08:59.273Z,17.50
2022-12-04T02:11:37.507Z,17.65
2022-12-04T02:14:15.393Z,18.48
2022-12-04T02:16:49.662Z,18.50
2022-12-04T02:19:41.958Z,18.77
2022-12-04T02:22:22.671Z,18.20
2022-12-04T02:24:58.480Z,18.67
2022-12-04T02:27:46.366Z,17.85
2022-12-04T02:30:15.742Z,17.67
2022-12-04T02:32:47.633Z,16.23
2022-12-04T02:35:22.767Z,17.33
2022-12-04T02:37:55.654Z,17.92
2022-12-04T02:40:31.071Z,17.25
2022-12-04T02:43:09.053Z,17.63
2022-12-04T02:45:42.870Z,17.55
2022-12-04T02:48:13.101Z,17.38
2022-12-04T02:50:42.119Z,17.15
2022-12-04T02:53:13.643Z,17.15
2022-12-04T02:55:45.307Z,16.63
2022-12-04T02:58:18.305Z,16.88
2022-12-04T03:00:49.012Z,17.38
2022-12-04T03:03:21.769Z,16.58
2022-12-04T03:05:56.800Z,16.77
2022-12-04T03:08:30.182Z,16.63
2022-12-04T03:11:01.813Z,16.63
2022-12-04T03:13:37.179Z,17.38
2022-12-04T03:16:11.791Z,17.83
2022-12-04T03:18:46.332Z,16.65
2022-12-04T03:21:19.145Z,17.63
2022-12-04T03:23:51.873Z,16.95
2022-12-04T03:26:27.147Z,16.52
2022-12-04T03:29:01.880Z,16.52
2022-12-04T03:31:36.400Z,15.90
2022-12-04T03:34:07.380Z,15.88
2022-12-04T03:36:39.177Z,16.27
2022-12-04T03:39:16.177Z,15.55
2022-12-04T03:41:56.096Z,16.20
2022-12-04T03:44:28.891Z,17.55
2022-12-04T03:47:00.916Z,17.27
2022-12-04T03:49:38.339Z,16.35
2022-12-04T03:52:17.282Z,15.85
2022-12-04T03:54:50.551Z,16.55
2022-12-04T03:57:26.028Z,17.40
2022-12-04T04:00:01.544Z,15.48
2022-12-04T04:02:34.129Z,16.15
2022-12-04T04:07:36.256Z,16.48
2022-12-04T04:10:11.806Z,15.68
2022-12-04T04:12:44.832Z,15.77
2022-12-04T04:15:34.138Z,15.25
2022-12-04T04:18:20.906Z,15.48
2022-12-04T04:21:13.619Z,16.15
2022-12-04T04:24:02.011Z,16.48
2022-12-04T04:26:37.618Z,16.38
2022-12-04T04:29:05.515Z,15.43
2022-12-04T04:31:41.133Z,17.30
2022-12-04T04:34:19.200Z,15.77
2022-12-04T04:36:55.882Z,16.20
2022-12-04T04:39:32.232Z,15.52
2022-12-04T04:42:05.844Z,16.05
2022-12-04T04:44:41.179Z,15.70
2022-12-04T04:47:16.574Z,16.08
2022-12-04T04:49:47.343Z,16.70
2022-12-04T04:52:17.178Z,15.82
2022-12-04T04:54:46.089Z,16.13
2022-12-04T04:57:14.019Z,15.35
2022-12-04T04:59:41.968Z,15.52
2022-12-04T05:02:13.454Z,16.13
2022-12-04T05:04:41.452Z,16.10
2022-12-04T05:07:09.357Z,13.98
2022-12-04T05:09:41.201Z,15.40
2022-12-04T05:14:37.695Z,14.95
2022-12-04T05:17:10.854Z,15.23
2022-12-04T05:19:57.882Z,15.80
2022-12-04T05:22:27.989Z,15.80
2022-12-04T05:24:56.577Z,14.88
2022-12-04T05:27:27.882Z,15.82
2022-12-04T05:29:57.341Z,16.10
2022-12-04T05:32:27.890Z,15.30
2022-12-04T05:34:58.203Z,15.48
2022-12-04T05:37:26.623Z,14.88
2022-12-04T05:39:55.139Z,16.27
2022-12-04T05:42:23.386Z,15.75
2022-12-04T05:44:51.412Z,14.65
2022-12-04T05:47:19.377Z,15.13
2022-12-04T05:49:49.685Z,15.30
2022-12-04T05:52:19.013Z,14.80
2022-12-04T05:54:46.960Z,15.05
2022-12-04T05:57:15.000Z,14.52
2022-12-04T05:59:43.068Z,15.27
2022-12-04T06:02:11.076Z,15.50
2022-12-04T06:04:39.278Z,14.95
2022-12-04T06:07:07.208Z,15.23
2022-12-04T06:09:36.542Z,14.07
2022-12-04T06:12:06.982Z,14.93
2022-12-04T06:14:39.293Z,15.60
2022-12-04T06:17:08.314Z,14.30
2022-12-04T06:19:36.239Z,14.48
2022-12-04T06:22:04.871Z,15.52
2022-12-04T06:24:32.890Z,15.13
2022-12-04T06:27:26.849Z,14.00
2022-12-04T06:29:50.176Z,15.00
2022-12-04T06:32:21.814Z,14.60
2022-12-04T06:37:19.770Z,15.27
2022-12-04T06:39:47.670Z,14.77
2022-12-04T06:42:17.146Z,14.70
2022-12-04T06:44:45.114Z,14.70
2022-12-04T06:47:13.139Z,14.48
2022-12-04T06:49:41.304Z,14.38
2022-12-04T06:52:09.401Z,14.73
2022-12-04T06:54:37.296Z,14.10
2022-12-04T06:57:05.424Z,15.18
2022-12-04T06:59:34.804Z,14.00
2022-12-04T07:02:05.106Z,13.68
2022-12-04T07:04:33.170Z,13.90
2022-12-04T07:07:01.144Z,14.88
2022-12-04T07:09:29.234Z,15.00
2022-12-04T07:11:57.226Z,13.90
2022-12-04T07:14:25.199Z,14.75
2022-12-04T07:16:54.514Z,14.02
2022-12-04T07:19:22.562Z,14.02
2022-12-04T07:21:52.542Z,14.57
2022-12-04T07:24:20.566Z,14.27
2022-12-04T07:26:48.659Z,14.20
2022-12-04T07:29:16.731Z,14.27
2022-12-04T07:31:45.392Z,13.52
2022-12-04T07:34:14.752Z,13.40
2022-12-04T07:36:42.697Z,13.93
2022-12-04T07:39:10.930Z,13.98
2022-12-04T07:41:38.908Z,12.45
2022-12-04T07:44:09.197Z,13.98
2022-12-04T07:46:37.264Z,14.38
2022-12-04T07:49:05.198Z,13.77
2022-12-04T07:51:34.477Z,13.95
2022-12-04T07:54:04.930Z,13.52
2022-12-04T07:56:33.520Z,13.32
2022-12-04T07:59:01.761Z,13.63
2022-12-04T08:01:29.888Z,13.23
2022-12-04T08:03:59.739Z,13.32
2022-12-04T08:06:29.870Z,13.73
2022-12-04T08:09:01.523Z,13.65
2022-12-04T08:11:33.285Z,13.07
2022-12-04T08:14:03.761Z,13.35
2022-12-04T08:16:33.930Z,13.50
2022-12-04T08:19:02.117Z,12.65
2022-12-04T08:21:32.713Z,13.32
2022-12-04T08:24:02.700Z,12.95
2022-12-04T08:26:31.748Z,13.25
2022-12-04T08:29:01.299Z,13.65
2022-12-04T08:31:32.694Z,13.23
2022-12-04T08:34:03.197Z,13.32
2022-12-04T08:36:31.638Z,12.30
2022-12-04T08:38:59.666Z,13.07
2022-12-04T08:41:29.284Z,13.07
2022-12-04T08:43:58.038Z,13.05
2022-12-04T08:46:27.505Z,12.68
2022-12-04T08:48:56.240Z,12.55
2022-12-04T08:51:26.443Z,11.85
2022-12-04T08:53:56.499Z,12.32
2022-12-04T08:56:25.054Z,12.25
2022-12-04T08:58:56.396Z,11.05
2022-12-04T09:01:25.810Z,10.57
2022-12-04T09:03:54.199Z,11.73
2022-12-04T09:06:22.736Z,11.43
2022-12-04T09:08:54.260Z,11.32
2022-12-04T09:11:23.610Z,12.10
2022-12-04T09:13:52.989Z,11.68
2022-12-04T09:16:24.508Z,11.18
2022-12-04T09:18:53.253Z,11.65
2022-12-04T09:21:22.367Z,11.25
2022-12-04T09:23:50.855Z,11.23
2022-12-04T09:26:21.693Z,11.55
2022-12-04T09:28:50.675Z,12.13
2022-12-04T09:31:20.328Z,11.32
2022-12-04T09:33:50.303Z,11.30
2022-12-04T09:36:18.596Z,10.70
2022-12-04T09:38:48.239Z,10.68
2022-12-04T09:41:30.093Z,11.40
2022-12-04T09:44:02.247Z,11.23
2022-12-04T09:49:08.044Z,10.40
2022-12-04T09:51:38.505Z,10.48
2022-12-04T09:54:14.578Z,10.07
2022-12-04T09:56:45.218Z,9.90
2022-12-04T09:59:18.025Z,10.77
2022-12-04T10:01:49.125Z,9.25
2022-12-04T10:04:21.717Z,9.90
2022-12-04T10:06:57.175Z,9.82
2022-12-04T10:09:32.989Z,9.27
2022-12-04T10:12:14.385Z,9.98
2022-12-04T10:14:54.385Z,8.73
2022-12-04T10:17:39.327Z,9.40
2022-12-04T10:20:21.526Z,9.25
2022-12-04T10:22:59.591Z,9.07
2022-12-04T10:25:30.013Z,8.80
2022-12-04T10:28:03.989Z,8.88
2022-12-04T10:30:35.983Z,9.38
2022-12-04T10:33:15.210Z,9.05
2022-12-04T10:35:47.226Z,8.27
2022-12-04T10:38:27.374Z,8.43
2022-12-04T10:41:00.675Z,8.63
2022-12-04T10:43:37.541Z,8.80
2022-12-04T10:46:07.002Z,8.70
2022-12-04T10:48:38.604Z,8.95
2022-12-04T10:51:13.998Z,8.13
2022-12-04T10:53:42.427Z,8.10
2022-12-04T10:56:12.951Z,8.35
2022-12-04T10:58:41.190Z,8.40
2022-12-04T11:01:12.616Z,8.43
2022-12-04T11:03:40.918Z,7.50
2022-12-04T11:06:11.864Z,8.48
2022-12-04T11:08:42.901Z,7.85
2022-12-04T11:11:13.736Z,7.82
2022-12-04T11:13:42.602Z,7.03
2022-12-04T11:16:33.243Z,7.90
2022-12-04T11:19:04.530Z,8.82
2022-12-04T11:21:34.102Z,8.15
2022-12-04T11:24:02.852Z,7.68
2022-12-04T11:26:33.749Z,7.32
2022-12-04T11:29:03.243Z,7.82
2022-12-04T11:31:32.347Z,8.60
2022-12-04T11:34:03.903Z,7.63
2022-12-04T11:36:36.318Z,8.45
2022-12-04T11:39:08.593Z,8.73
2022-12-04T11:44:07.183Z,7.38
2022-12-04T11:46:35.645Z,7.97
2022-12-04T11:49:04.264Z,8.32
2022-12-04T11:51:49.949Z,8.70
2022-12-04T11:54:30.220Z,7.63
2022-12-04T11:57:13.032Z,7.88
2022-12-04T11:59:56.458Z,7.63
2022-12-04T12:02:43.507Z,8.18
2022-12-04T12:05:25.444Z,6.85
2022-12-04T12:08:06.618Z,7.40
2022-12-04T12:10:44.559Z,7.90
2022-12-04T12:13:23.417Z,7.80
2022-12-04T12:16:01.636Z,7.97
2022-12-04T12:18:47.892Z,7.25
2022-12-04T12:21:23.232Z,7.20
2022-12-04T12:24:16.750Z,7.15
2022-12-04T12:26:51.222Z,7.35
2022-12-04T12:29:35.519Z,8.13
2022-12-04T12:32:17.211Z,7.30
2022-12-04T12:34:47.427Z,7.60
2022-12-04T12:37:22.613Z,6.82
2022-12-04T12:40:00.570Z,7.32
2022-12-04T12:42:34.730Z,7.35
2022-12-04T12:45:07.864Z,6.95
2022-12-04T12:47:42.095Z,7.32
2022-12-04T12:50:17.674Z,7.22
2022-12-04T12:52:52.891Z,7.00
2022-12-04T12:55:27.015Z,6.88
2022-12-04T12:58:05.920Z,7.10
2022-12-04T13:00:40.618Z,7.22
2022-12-04T13:03:27.433Z,6.57
2022-12-04T13:06:00.737Z,6.80
2022-12-04T13:08:31.521Z,6.82
2022-12-04T13:11:06.765Z,7.05
2022-12-04T13:13:37.402Z,6.82
2022-12-04T13:16:10.727Z,6.38
2022-12-04T13:18:47.348Z,6.18
2022-12-04T13:21:30.983Z,6.85
2022-12-04T13:24:21.634Z,6.35
2022-12-04T13:26:57.337Z,6.30
2022-12-04T13:29:42.371Z,6.22
2022-12-04T13:32:34.545Z,6.65
2022-12-04T13:35:10.203Z,6.13
2022-12-04T13:37:59.890Z,5.70
2022-12-04T13:40:33.585Z,5.93
2022-12-04T13:43:39.728Z,6.78
2022-12-04T13:46:26.518Z,6.15
2022-12-04T13:48:54.744Z,6.65
2022-12-04T13:51:37.229Z,6.05
2022-12-04T13:56:52.524Z,6.05
2022-12-04T13:59:24.795Z,6.57
2022-12-04T14:04:29.626Z,6.82
2022-12-04T14:07:01.450Z,6.20
2022-12-04T14:09:35.003Z,6.50
2022-12-04T14:12:07.061Z,6.63
2022-12-04T14:14:42.301Z,6.30
2022-12-04T14:17:20.853Z,6.63
2022-12-04T14:19:54.410Z,6.88
2022-12-04T14:22:31.454Z,6.72
2022-12-04T14:25:23.111Z,6.97
2022-12-04T14:27:53.539Z,6.63
2022-12-04T14:30:24.809Z,6.63
2022-12-04T14:33:01.507Z,7.80
2022-12-04T14:35:30.289Z,7.63
2022-12-04T14:38:01.696Z,8.25
2022-12-04T14:40:35.386Z,7.63
2022-12-04T14:43:03.756Z,7.10
2022-12-04T14:45:44.182Z,6.93
2022-12-04T14:48:36.203Z,7.15
2022-12-04T14:51:14.809Z,7.22
2022-12-04T14:53:48.518Z,6.80
2022-12-04T14:56:27.318Z,7.45
2022-12-04T14:58:56.286Z,7.45
2022-12-04T15:01:29.771Z,7.50
2022-12-04T15:04:05.176Z,7.22
2022-12-04T15:06:34.874Z,7.07
2022-12-04T15:09:18.413Z,7.68
2022-12-04T15:12:05.279Z,7.47
2022-12-04T15:14:41.897Z,7.95
2022-12-04T15:17:12.133Z,8.50
2022-12-04T15:19:41.684Z,7.50
2022-12-04T15:22:19.567Z,8.10
2022-12-04T15:24:47.721Z,7.80
2022-12-04T15:27:17.580Z,7.68
2022-12-04T15:29:48.388Z,7.88
2022-12-04T15:32:21.542Z,8.00
2022-12-04T15:34:55.354Z,7.88
2022-12-04T15:37:26.925Z,8.07
2022-12-04T15:39:55.471Z,7.93
2022-12-04T15:42:28.299Z,7.50
2022-12-04T15:45:01.138Z,8.50
2022-12-04T15:47:31.389Z,8.40
2022-12-04T15:50:11.531Z,8.23
2022-12-04T15:52:49.045Z,8.52
2022-12-04T15:55:20.093Z,9.15
2022-12-04T15:57:53.616Z,8.07
2022-12-04T16:00:28.433Z,8.68
2022-12-04T16:02:58.848Z,8.68
2022-12-04T16:05:36.564Z,8.07
2022-12-04T16:08:24.357Z,9.23
2022-12-04T16:11:01.182Z,9.05
2022-12-04T16:13:31.939Z,8.82
2022-12-04T16:16:01.216Z,9.35
2022-12-04T16:18:29.936Z,9.50
2022-12-04T16:20:59.350Z,8.85
2022-12-04T16:23:28.391Z,8.82
2022-12-04T16:25:56.781Z,8.60
2022-12-04T16:28:25.050Z,8.73
2022-12-04T16:30:53.632Z,9.02
2022-12-04T16:33:21.684Z,9.20
2022-12-04T16:35:50.202Z,9.63
2022-12-04T16:38:19.544Z,9.57
2022-12-04T16:40:48.579Z,9.07
2022-12-04T16:43:18.175Z,9.35
2022-12-04T16:45:48.694Z,9.80
2022-12-04T16:48:16.815Z,8.85
2022-12-04T16:50:45.938Z,9.57
2022-12-04T16:53:17.607Z,9.02
2022-12-04T16:55:48.961Z,8.32
2022-12-04T16:58:20.914Z,9.50
2022-12-04T17:00:53.202Z,8.93
2022-12-04T17:03:26.074Z,9.05
2022-12-04T17:05:54.346Z,8.55
2022-12-04T17:08:22.797Z,9.23
2022-12-04T17:10:52.701Z,9.05
2022-12-04T17:13:21.433Z,9.05
2022-12-04T17:15:50.323Z,9.10
2022-12-04T17:18:21.302Z,9.25
2022-12-04T17:20:52.396Z,8.98
2022-12-04T17:23:20.363Z,7.88
2022-12-04T17:25:48.413Z,8.05
2022-12-04T17:28:17.981Z,7.43
2022-12-04T17:30:47.072Z,8.63
2022-12-04T17:33:15.313Z,8.55
2022-12-04T17:35:44.690Z,8.00
2022-12-04T17:38:12.634Z,7.53
2022-12-04T17:40:40.553Z,8.65
2022-12-04T17:43:08.496Z,8.77
2022-12-04T17:45:40.832Z,7.80
2022-12-04T17:48:08.779Z,8.35
2022-12-04T17:50:38.992Z,8.65
2022-12-04T17:53:09.918Z,7.93
2022-12-04T17:55:37.880Z,8.45
2022-12-04T17:58:05.823Z,8.15
2022-12-04T18:00:33.834Z,7.82
2022-12-04T18:03:03.289Z,7.80
2022-12-04T18:05:31.311Z,8.10
2022-12-04T18:07:59.341Z,8.35
2022-12-04T18:10:27.332Z,7.85
2022-12-04T18:12:55.277Z,8.32
2022-12-04T18:15:23.455Z,8.75
2022-12-04T18:17:51.347Z,8.82
2022-12-04T18:20:20.900Z,8.20
2022-12-04T18:22:48.975Z,8.85
2022-12-04T18:25:16.989Z,8.80
2022-12-04T18:27:44.967Z,8.95
2022-12-04T18:30:13.561Z,8.65
2022-12-04T18:32:41.534Z,8.57
2022-12-04T18:35:11.447Z,9.07
2022-12-04T18:37:40.775Z,9.00
2022-12-04T18:40:09.899Z,8.90
2022-12-04T18:42:37.906Z,9.02
2022-12-04T18:45:06.601Z,9.25
2022-12-04T18:47:36.559Z,8.95
2022-12-04T18:50:04.737Z,8.65
2022-12-04T18:52:36.234Z,8.88
2022-12-04T18:55:06.532Z,9.68
2022-12-04T18:57:34.585Z,8.60
2022-12-04T19:00:02.527Z,10.45
2022-12-04T19:02:30.828Z,9.20
2022-12-04T19:04:58.799Z,9.00
2022-12-04T19:07:26.664Z,9.18
2022-12-04T19:10:10.714Z,9.88
2022-12-04T19:12:44.866Z,10.10
2022-12-04T19:15:12.921Z,9.45
2022-12-04T19:17:43.437Z,8.52
2022-12-04T19:20:16.242Z,10.10
2022-12-04T19:22:44.668Z,10.05
2022-12-04T19:25:12.616Z,9.70
2022-12-04T19:27:40.568Z,9.27
2022-12-04T19:30:11.084Z,9.80
2022-12-04T19:32:39.101Z,10.05
2022-12-04T19:35:07.500Z,10.00
2022-12-04T19:37:41.214Z,9.95
2022-12-04T19:40:10.667Z,9.93
2022-12-04T19:42:38.673Z,10.02
2022-12-04T19:45:07.349Z,10.05
2022-12-04T19:47:36.873Z,10.25
2022-12-04T19:50:05.494Z,9.60
2022-12-04T19:52:34.711Z,10.30
2022-12-04T19:55:02.752Z,9.30
2022-12-04T19:57:30.804Z,9.70
2022-12-04T20:00:01.083Z,10.35
2022-12-04T20:02:29.302Z,10.35
2022-12-04T20:04:58.571Z,9.63
2022-12-04T20:07:26.497Z,10.25
2022-12-04T20:09:56.067Z,10.10
2022-12-04T20:12:24.756Z,9.75
2022-12-04T20:14:52.804Z,10.02
2022-12-04T20:17:20.831Z,10.07
2022-12-04T20:19:48.787Z,9.38
2022-12-04T20:22:18.103Z,9.88
2022-12-04T20:24:46.097Z,9.82
2022-12-04T20:27:13.990Z,9.75
2022-12-04T20:29:42.065Z,10.35
2022-12-04T20:32:10.031Z,10.10
2022-12-04T20:34:43.340Z,10.63
2022-12-04T20:37:11.643Z,10.27
2022-12-04T20:39:40.909Z,8.43
2022-12-04T20:42:08.862Z,9.23
2022-12-04T20:44:37.048Z,9.25
2022-12-04T20:47:04.958Z,9.10
2022-12-04T20:49:32.936Z,8.85
2022-12-04T20:52:00.908Z,9.43
2022-12-04T20:54:28.847Z,9.60
2022-12-04T20:56:58.044Z,9.68
2022-12-04T20:59:26.390Z,9.57
2022-12-04T21:01:54.896Z,9.40
2022-12-04T21:04:23.567Z,10.05
2022-12-04T21:06:51.511Z,9.93
2022-12-04T21:09:22.067Z,9.30
2022-12-04T21:11:54.073Z,10.23
2022-12-04T21:14:42.429Z,9.20
2022-12-04T21:17:16.748Z,9.90
2022-12-04T21:19:44.866Z,10.18
2022-12-04T21:22:12.931Z,9.57
2022-12-04T21:24:42.282Z,9.88
2022-12-04T21:27:13.389Z,10.25
2022-12-04T21:29:46.956Z,9.32
2022-12-04T21:32:15.182Z,10.45
2022-12-04T21:34:43.078Z,9.88
2022-12-04T21:37:11.275Z,9.85
2022-12-04T21:39:39.172Z,9.38
2022-12-04T21:42:24.291Z,9.43
2022-12-04T21:44:53.647Z,9.75
2022-12-04T21:47:21.593Z,9.75
2022-12-04T21:49:49.614Z,9.82
2022-12-04T21:52:18.186Z,9.60
2022-12-04T21:54:46.112Z,9.88
2022-12-04T21:57:14.046Z,10.13
2022-12-04T21:59:42.027Z,9.88
2022-12-04T22:02:12.304Z,10.07
2022-12-04T22:04:40.341Z,9.35
2022-12-04T22:07:08.325Z,10.23
2022-12-04T22:09:37.758Z,9.93
2022-12-04T22:12:20.234Z,9.82
2022-12-04T22:14:54.230Z,9.85
2022-12-04T22:17:23.568Z,9.55
2022-12-04T22:19:51.531Z,9.93
2022-12-04T22:22:19.459Z,10.13
2022-12-04T22:24:48.824Z,10.27
2022-12-04T22:27:17.491Z,9.63
2022-12-04T22:29:52.524Z,10.68
2022-12-04T22:32:20.673Z,9.40
2022-12-04T22:34:50.360Z,10.18
2022-12-04T22:37:18.508Z,10.05
2022-12-04T22:39:46.458Z,9.85
2022-12-04T22:42:14.407Z,9.88
2022-12-04T22:44:42.318Z,9.32
2022-12-04T22:47:10.604Z,9.70
2022-12-04T22:49:38.593Z,9.02
2022-12-04T22:52:07.925Z,9.60
2022-12-04T22:54:35.901Z,9.25
2022-12-04T22:57:03.882Z,9.30
2022-12-04T22:59:32.031Z,9.95
2022-12-04T23:02:01.120Z,8.90
2022-12-04T23:04:29.689Z,9.85
2022-12-04T23:06:57.720Z,10.02
2022-12-04T23:09:27.921Z,9.13
2022-12-04T23:11:57.233Z,9.75
2022-12-04T23:14:27.084Z,9.38
2022-12-04T23:16:56.261Z,9.55
2022-12-04T23:19:24.745Z,9.00
2022-12-04T23:21:56.911Z,10.10
2022-12-04T23:24:27.103Z,10.73
2022-12-04T23:26:55.041Z,9.35
2022-12-04T23:29:51.637Z,9.23
2022-12-04T23:32:10.970Z,9.73
2022-12-04T23:34:39.854Z,9.32
2022-12-04T23:37:07.864Z,9.98
2022-12-04T23:39:37.160Z,10.02
2022-12-04T23:42:05.272Z,9.15
2022-12-04T23:44:33.382Z,9.20
2022-12-04T23:47:04.148Z,9.80
2022-12-04T23:49:32.282Z,9.80
2022-12-04T23:52:00.178Z,9.68
2022-12-04T23:54:30.284Z,9.50
2022-12-04T23:56:59.705Z,10.57
2022-12-04T23:59:27.875Z,9.82
